Time;durP1;ratioP1;P1;durP2;ratioP2;P2;SDS_P1;SDS_P2;PMS_P1;PMS_P2;Temp;Humidity;BMP_temperature;BMP_pressure;BME280_temperature;BME280_humidity;BME280_pressure;Samples;Min_cycle;Max_cycle;Signal;HPM_P1;HPM_P2
2020/12/11 00:02:24;;;;;;;69.90;21.65;;;2.70;92.60;;;;;;5020243;28;20021;-78
2020/12/11 00:04:50;;;;;;;72.97;23.17;;;2.60;92.70;;;;;;5041683;28;20032;-77
2020/12/11 00:07:16;;;;;;;67.32;21.52;;;2.60;92.70;;;;;;5038296;28;20025;-77
2020/12/11 00:09:41;;;;;;;72.57;22.30;;;2.70;92.80;;;;;;5032109;28;20031;-78
2020/12/11 00:12:07;;;;;;;62.75;22.17;;;2.60;92.80;;;;;;5019923;28;20032;-77
2020/12/11 00:14:33;;;;;;;72.50;22.65;;;2.60;92.80;;;;;;5016644;28;20025;-78
2020/12/11 00:16:59;;;;;;;70.70;21.13;;;2.70;92.60;;;;;;5033705;28;20044;-78
2020/12/11 00:19:24;;;;;;;67.45;21.08;;;2.70;92.70;;;;;;5017373;28;20021;-78
2020/12/11 00:21:50;;;;;;;69.75;21.52;;;2.70;92.60;;;;;;5029768;28;20033;-78
2020/12/11 00:24:16;;;;;;;65.35;21.98;;;2.70;92.60;;;;;;5032899;28;20147;-78
2020/12/11 00:26:41;;;;;;;64.90;21.73;;;2.70;92.60;;;;;;5057125;28;20512;-78
2020/12/11 00:29:07;;;;;;;72.75;23.10;;;2.60;92.70;;;;;;5034474;28;20626;-79
2020/12/11 00:31:33;;;;;;;67.18;20.48;;;2.60;92.80;;;;;;5025612;28;20059;-78
2020/12/11 00:33:59;;;;;;;68.32;21.73;;;2.60;92.80;;;;;;5020788;28;20017;-78
2020/12/11 00:36:25;;;;;;;66.95;23.23;;;2.60;92.70;;;;;;5022605;28;20036;-78
2020/12/11 00:38:52;;;;;;;69.30;22.35;;;2.60;92.80;;;;;;5035309;28;20522;-78
2020/12/11 00:41:18;;;;;;;70.55;23.45;;;2.60;92.70;;;;;;5034485;28;20029;-79
2020/12/11 00:43:44;;;;;;;69.85;22.63;;;2.60;92.80;;;;;;5027187;28;20666;-78
2020/12/11 00:46:10;;;;;;;70.88;23.42;;;2.60;92.80;;;;;;5022158;28;20083;-78
2020/12/11 00:48:36;;;;;;;65.95;21.52;;;2.60;92.80;;;;;;5021545;28;20043;-78
2020/12/11 00:51:02;;;;;;;78.78;23.38;;;2.60;92.90;;;;;;5033935;28;20021;-77
2020/12/11 00:53:28;;;;;;;70.35;23.80;;;2.60;92.90;;;;;;5038273;28;20032;-78
2020/12/11 00:55:53;;;;;;;65.25;22.13;;;2.60;92.90;;;;;;5021238;28;20025;-78
2020/12/11 00:58:19;;;;;;;80.75;25.42;;;2.60;92.80;;;;;;5018898;28;20022;-79
2020/12/11 01:00:45;;;;;;;76.18;25.58;;;2.60;92.90;;;;;;5018999;28;20114;-78
2020/12/11 01:03:11;;;;;;;76.90;24.63;;;2.60;92.90;;;;;;5026981;28;20195;-78
2020/12/11 01:05:37;;;;;;;82.20;23.75;;;2.60;92.90;;;;;;5049931;28;20557;-78
2020/12/11 01:08:06;;;;;;;78.22;25.08;;;2.70;93.00;;;;;;5028988;28;20024;-79
2020/12/11 01:10:33;;;;;;;72.47;24.38;;;2.70;93.00;;;;;;5035639;28;20021;-78
2020/12/11 01:12:58;;;;;;;87.30;24.55;;;2.70;92.90;;;;;;5023793;28;20028;-79
2020/12/11 01:15:24;;;;;;;92.32;26.95;;;2.70;92.90;;;;;;5018440;28;20021;-78
2020/12/11 01:17:51;;;;;;;89.28;27.13;;;2.70;93.00;;;;;;5025641;28;20100;-78
2020/12/11 01:20:16;;;;;;;84.60;23.90;;;2.70;92.90;;;;;;5033849;28;20455;-78
2020/12/11 01:22:42;;;;;;;83.05;25.60;;;2.70;92.90;;;;;;5047998;28;20113;-79
2020/12/11 01:25:08;;;;;;;82.90;25.15;;;2.70;92.80;;;;;;5016505;28;20075;-78
2020/12/11 01:27:34;;;;;;;87.60;27.38;;;2.80;92.80;;;;;;5016924;28;20028;-77
2020/12/11 01:30:00;;;;;;;82.15;24.00;;;2.70;92.80;;;;;;5037802;28;20041;-78
2020/12/11 01:32:25;;;;;;;84.20;24.90;;;2.70;92.80;;;;;;5031026;28;20033;-78
2020/12/11 01:34:51;;;;;;;75.97;24.98;;;2.70;92.80;;;;;;5014843;28;20029;-77
2020/12/11 01:37:17;;;;;;;86.53;25.92;;;2.70;92.80;;;;;;5037750;28;20085;-78
2020/12/11 01:39:42;;;;;;;83.50;26.25;;;2.60;92.80;;;;;;5034202;28;20091;-78
2020/12/11 01:42:12;;;;;;;84.60;24.58;;;2.60;92.90;;;;;;5032627;28;20029;-78
2020/12/11 01:44:47;;;;;;;86.78;26.73;;;2.60;92.80;;;;;;5033143;28;20025;-78
2020/12/11 01:47:12;;;;;;;82.32;25.02;;;2.70;92.90;;;;;;5014082;28;20385;-77
2020/12/11 01:49:38;;;;;;;83.82;25.85;;;2.70;92.80;;;;;;5035662;28;20079;-78
2020/12/11 01:52:05;;;;;;;75.55;24.50;;;2.70;92.90;;;;;;5030240;28;20040;-78
2020/12/11 01:54:31;;;;;;;87.88;24.52;;;2.70;92.80;;;;;;5039473;28;20100;-78
2020/12/11 01:57:03;;;;;;;88.18;25.55;;;2.70;92.80;;;;;;5062684;28;20395;-78
2020/12/11 01:59:37;;;;;;;85.55;25.85;;;2.70;92.80;;;;;;5029059;28;20051;-78
2020/12/11 02:02:04;;;;;;;76.38;24.67;;;2.70;92.80;;;;;;5031386;28;20080;-78
2020/12/11 02:04:32;;;;;;;82.82;24.73;;;2.70;92.80;;;;;;5020089;28;20033;-78
2020/12/11 02:06:58;;;;;;;67.72;22.08;;;2.80;92.70;;;;;;5030954;28;20553;-78
2020/12/11 02:09:25;;;;;;;72.00;23.08;;;2.70;92.60;;;;;;5046033;28;20099;-78
2020/12/11 02:11:53;;;;;;;71.85;23.38;;;2.80;92.40;;;;;;5035333;28;20063;-77
2020/12/11 02:14:19;;;;;;;76.78;24.08;;;2.70;92.40;;;;;;5037947;28;20044;-78
2020/12/11 02:16:45;;;;;;;73.72;24.60;;;2.70;92.60;;;;;;5021307;28;20032;-78
2020/12/11 02:19:12;;;;;;;65.57;21.25;;;2.70;92.60;;;;;;5033298;28;20047;-78
2020/12/11 02:21:38;;;;;;;68.85;22.70;;;2.60;92.60;;;;;;5035214;28;20025;-78
2020/12/11 02:24:04;;;;;;;68.00;22.55;;;2.60;92.50;;;;;;5033120;28;20032;-78
2020/12/11 02:26:29;;;;;;;62.42;21.77;;;2.60;92.60;;;;;;5037829;28;20032;-78
2020/12/11 02:28:55;;;;;;;63.42;20.88;;;2.60;92.70;;;;;;5035381;28;20084;-78
2020/12/11 02:31:21;;;;;;;64.75;21.25;;;2.60;92.60;;;;;;5054380;28;20496;-78
2020/12/11 02:33:47;;;;;;;68.53;22.15;;;2.60;92.70;;;;;;5034890;28;20024;-78
2020/12/11 02:36:12;;;;;;;61.33;19.90;;;2.60;92.60;;;;;;5014274;28;20024;-78
2020/12/11 02:38:38;;;;;;;64.25;21.10;;;2.60;92.50;;;;;;5047943;28;20021;-78
2020/12/11 02:41:04;;;;;;;59.05;20.27;;;2.50;92.60;;;;;;5031683;28;20041;-78
2020/12/11 02:43:36;;;;;;;66.00;19.20;;;2.50;92.70;;;;;;5019481;28;20063;-78
2020/12/11 02:46:03;;;;;;;62.85;21.40;;;2.50;92.70;;;;;;5018806;28;20036;-77
2020/12/11 02:48:30;;;;;;;56.45;18.90;;;2.50;92.70;;;;;;5025149;28;20017;-79
2020/12/11 02:50:57;;;;;;;57.75;19.98;;;2.50;92.50;;;;;;5032508;28;20032;-78
2020/12/11 02:53:23;;;;;;;58.38;20.33;;;2.50;92.50;;;;;;5035571;28;20028;-78
2020/12/11 02:55:48;;;;;;;55.22;18.10;;;2.50;92.60;;;;;;5021776;28;20021;-78
2020/12/11 02:58:14;;;;;;;50.45;18.20;;;2.50;92.50;;;;;;5025184;28;20507;-78
2020/12/11 03:00:40;;;;;;;55.47;19.25;;;2.50;92.50;;;;;;5013699;28;20036;-78
2020/12/11 03:03:06;;;;;;;54.03;18.52;;;2.50;92.40;;;;;;5039975;28;20032;-78
2020/12/11 03:05:31;;;;;;;53.10;19.83;;;2.50;92.40;;;;;;5050133;28;20477;-77
2020/12/11 03:07:57;;;;;;;50.55;18.63;;;2.50;92.60;;;;;;5018331;28;20035;-78
2020/12/11 03:10:23;;;;;;;49.67;17.67;;;2.50;92.50;;;;;;5034349;28;20060;-77
2020/12/11 03:12:48;;;;;;;50.08;17.55;;;2.50;92.50;;;;;;5014962;28;20053;-78
2020/12/11 03:15:14;;;;;;;55.22;19.00;;;2.50;92.50;;;;;;5033044;28;20036;-78
2020/12/11 03:17:40;;;;;;;58.63;19.50;;;2.50;92.50;;;;;;5031504;28;20111;-78
2020/12/11 03:20:06;;;;;;;52.40;18.90;;;2.50;92.40;;;;;;5036345;28;20100;-78
2020/12/11 03:22:31;;;;;;;54.90;18.88;;;2.50;92.40;;;;;;5036454;28;20558;-78
2020/12/11 03:24:57;;;;;;;50.20;17.55;;;2.50;92.50;;;;;;5018007;28;20028;-78
2020/12/11 03:27:23;;;;;;;55.58;18.27;;;2.40;92.50;;;;;;5011425;28;20036;-78
2020/12/11 03:29:48;;;;;;;57.08;18.90;;;2.40;92.60;;;;;;5030358;28;20092;-78
2020/12/11 03:32:14;;;;;;;57.80;18.58;;;2.40;92.60;;;;;;5029965;28;20035;-78
2020/12/11 03:34:40;;;;;;;49.65;17.20;;;2.40;92.70;;;;;;5012359;22;20038;-77
2020/12/11 03:37:05;;;;;;;55.45;17.77;;;2.40;92.60;;;;;;4992203;28;20093;-77
2020/12/11 03:39:31;;;;;;;50.72;17.73;;;2.40;92.70;;;;;;4979492;28;20037;-77
2020/12/11 03:41:57;;;;;;;51.03;17.92;;;2.40;92.70;;;;;;4991048;28;20029;-77
2020/12/11 03:44:23;;;;;;;47.50;16.98;;;2.50;92.60;;;;;;4988325;28;20034;-77
2020/12/11 03:46:48;;;;;;;52.67;16.77;;;2.40;92.40;;;;;;4988023;28;20458;-77
2020/12/11 03:49:14;;;;;;;51.42;19.05;;;2.40;92.60;;;;;;4975035;28;20038;-77
2020/12/11 03:51:40;;;;;;;48.55;16.63;;;2.40;92.90;;;;;;4982846;28;20038;-77
2020/12/11 03:54:06;;;;;;;53.53;17.80;;;2.40;92.70;;;;;;4985137;28;20054;-77
2020/12/11 03:56:31;;;;;;;51.13;18.17;;;2.40;92.70;;;;;;4998477;28;20018;-77
2020/12/11 03:58:57;;;;;;;53.17;16.80;;;2.50;92.70;;;;;;4983318;28;20029;-78
2020/12/11 04:01:23;;;;;;;47.03;16.65;;;2.40;92.60;;;;;;4985042;28;20113;-78
2020/12/11 04:03:49;;;;;;;47.80;16.40;;;2.40;92.60;;;;;;4991205;28;20087;-77
2020/12/11 04:06:17;;;;;;;52.35;17.75;;;2.40;92.70;;;;;;4980256;28;20517;-77
2020/12/11 04:08:44;;;;;;;53.05;17.75;;;2.40;92.80;;;;;;4993709;28;20058;-77
2020/12/11 04:11:12;;;;;;;49.72;16.98;;;2.40;92.80;;;;;;4995040;28;20093;-77
2020/12/11 04:13:39;;;;;;;48.08;18.45;;;2.30;92.80;;;;;;4995942;28;20034;-77
2020/12/11 04:16:05;;;;;;;49.97;16.52;;;2.40;92.80;;;;;;4973588;28;20459;-77
2020/12/11 04:18:31;;;;;;;46.70;16.50;;;2.40;92.80;;;;;;4992828;28;20398;-77
2020/12/11 04:20:57;;;;;;;50.03;17.65;;;2.40;92.80;;;;;;5004502;28;20039;-77
2020/12/11 04:23:24;;;;;;;46.83;16.00;;;2.40;92.70;;;;;;4976304;28;20041;-77
2020/12/11 04:25:50;;;;;;;49.20;16.83;;;2.30;92.70;;;;;;4999143;28;20030;-77
2020/12/11 04:28:15;;;;;;;47.30;16.10;;;2.30;92.80;;;;;;4991174;28;20038;-77
2020/12/11 04:30:41;;;;;;;50.05;17.75;;;2.30;92.80;;;;;;4989272;28;20033;-77
2020/12/11 04:33:07;;;;;;;43.50;15.95;;;2.30;92.80;;;;;;4959579;28;20410;-77
2020/12/11 04:35:33;;;;;;;49.28;17.45;;;2.30;92.70;;;;;;4975107;28;20041;-77
2020/12/11 04:37:59;;;;;;;47.72;17.02;;;2.40;92.70;;;;;;4992500;28;20030;-77
2020/12/11 04:40:25;;;;;;;51.78;17.92;;;2.30;92.60;;;;;;5000161;28;20484;-77
2020/12/11 04:42:51;;;;;;;43.65;16.50;;;2.40;92.70;;;;;;4974706;28;20089;-77
2020/12/11 04:45:17;;;;;;;46.13;16.42;;;2.40;92.70;;;;;;4988146;28;20053;-77
2020/12/11 04:47:44;;;;;;;45.67;17.23;;;2.40;92.70;;;;;;5001095;28;20034;-78
2020/12/11 04:50:18;;;;;;;39.15;15.65;;;2.40;92.60;;;;;;4973738;28;20478;-76
2020/12/11 04:52:46;;;;;;;44.95;16.42;;;2.40;92.60;;;;;;4970437;28;20031;-78
2020/12/11 04:55:21;;;;;;;45.47;16.80;;;2.40;92.60;;;;;;4971154;28;20037;-77
2020/12/11 04:57:48;;;;;;;41.67;16.13;;;2.40;92.60;;;;;;4969141;28;20033;-78
2020/12/11 05:00:16;;;;;;;45.90;16.40;;;2.40;92.50;;;;;;4985187;28;20398;-77
2020/12/11 05:02:43;;;;;;;42.15;15.55;;;2.40;92.40;;;;;;4987899;28;20019;-77
2020/12/11 05:05:09;;;;;;;39.53;15.45;;;2.40;92.60;;;;;;4958106;28;20057;-78
2020/12/11 05:07:35;;;;;;;44.08;15.63;;;2.40;92.60;;;;;;4974045;28;20018;-76
2020/12/11 05:10:02;;;;;;;45.88;16.20;;;2.30;92.60;;;;;;4959591;28;20081;-78
2020/12/11 05:12:28;;;;;;;44.25;17.17;;;2.40;92.60;;;;;;4984232;28;20026;-77
2020/12/11 05:15:12;;;;;;;43.45;16.35;;;2.40;92.60;;;;;;4975678;28;20030;-78
2020/12/11 05:17:42;;;;;;;41.58;15.82;;;2.40;92.60;;;;;;4989727;28;20062;-78
2020/12/11 05:20:12;;;;;;;43.53;17.27;;;2.40;92.50;;;;;;4994695;28;20030;-78
2020/12/11 05:22:39;;;;;;;42.80;15.52;;;2.40;92.50;;;;;;4993772;28;20029;-77
2020/12/11 05:25:13;;;;;;;41.17;16.10;;;2.40;92.50;;;;;;4994777;28;20030;-77
2020/12/11 05:27:46;;;;;;;43.33;17.20;;;2.40;92.50;;;;;;5009166;28;20023;-78
2020/12/11 05:30:13;;;;;;;46.75;16.67;;;2.40;92.50;;;;;;4991202;28;20034;-76
2020/12/11 05:32:41;;;;;;;44.42;16.50;;;2.40;92.50;;;;;;4996326;28;20141;-76
2020/12/11 05:35:28;;;;;;;41.13;16.52;;;2.40;92.50;;;;;;4992162;28;20037;-76
2020/12/11 05:38:02;;;;;;;46.55;17.42;;;2.40;92.50;;;;;;4987564;28;20044;-76
2020/12/11 05:40:35;;;;;;;41.33;16.15;;;2.40;92.50;;;;;;4991102;28;20022;-77
2020/12/11 05:43:16;;;;;;;46.58;18.27;;;2.40;92.40;;;;;;5003072;28;20031;-76
2020/12/11 05:45:52;;;;;;;42.85;16.98;;;2.40;92.50;;;;;;4980733;28;20069;-75
2020/12/11 05:48:20;;;;;;;43.28;15.73;;;2.40;92.50;;;;;;4999775;28;20093;-77
2020/12/11 05:50:46;;;;;;;48.13;16.80;;;2.40;92.40;;;;;;4975279;28;20030;-78
2020/12/11 05:53:12;;;;;;;48.30;18.08;;;2.30;92.50;;;;;;4994735;28;20033;-78
2020/12/11 05:55:38;;;;;;;48.92;16.55;;;2.30;92.60;;;;;;4972110;28;20402;-76
2020/12/11 05:58:08;;;;;;;50.75;16.90;;;2.30;92.80;;;;;;4990213;28;20026;-78
2020/12/11 06:00:34;;;;;;;48.00;17.30;;;2.30;92.60;;;;;;4994099;28;20049;-79
2020/12/11 06:03:01;;;;;;;46.60;16.88;;;2.30;92.60;;;;;;4996671;28;20050;-78
2020/12/11 06:05:27;;;;;;;44.58;17.77;;;2.40;92.70;;;;;;4996008;28;20033;-80
2020/12/11 06:07:53;;;;;;;55.08;18.25;;;2.40;92.70;;;;;;4996420;28;20023;-78
2020/12/11 06:10:23;;;;;;;56.35;19.90;;;2.30;92.60;;;;;;4978777;28;20101;-79
2020/12/11 06:12:49;;;;;;;52.33;16.80;;;2.30;92.90;;;;;;4996937;28;20023;-78
2020/12/11 06:15:20;;;;;;;53.15;19.17;;;2.30;92.70;;;;;;4972727;28;20050;-76
2020/12/11 06:17:58;;;;;;;52.13;17.23;;;2.30;92.70;;;;;;4995771;28;20050;-79
2020/12/11 06:20:26;;;;;;;62.95;20.05;;;2.30;92.90;;;;;;4976559;28;20026;-78
2020/12/11 06:22:52;;;;;;;52.10;18.23;;;2.30;92.90;;;;;;4978515;28;20117;-77
2020/12/11 06:25:25;;;;;;;47.90;17.58;;;2.30;92.80;;;;;;4998106;28;20030;-79
2020/12/11 06:27:52;;;;;;;56.28;20.95;;;2.30;92.80;;;;;;5007421;28;20018;-79
2020/12/11 06:30:32;;;;;;;53.20;18.88;;;2.30;92.90;;;;;;4967276;28;20487;-75
2020/12/11 06:32:59;;;;;;;57.13;19.08;;;2.30;92.80;;;;;;5001916;28;20033;-78
2020/12/11 06:35:26;;;;;;;59.60;19.90;;;2.30;92.90;;;;;;4992118;28;20030;-76
2020/12/11 06:37:52;;;;;;;53.95;20.17;;;2.30;92.80;;;;;;4991593;28;20030;-77
2020/12/11 06:40:48;;;;;;;57.00;19.70;;;2.30;92.80;;;;;;4988397;28;20057;-76
2020/12/11 06:43:37;;;;;;;64.82;20.60;;;2.30;92.90;;;;;;4997827;28;20077;-77
2020/12/11 06:46:17;;;;;;;55.10;20.33;;;2.30;92.90;;;;;;4972729;28;20037;-76
2020/12/11 06:49:11;;;;;;;63.47;20.25;;;2.30;92.90;;;;;;4972855;28;20121;-79
2020/12/11 06:52:03;;;;;;;64.88;21.80;;;2.30;92.90;;;;;;4991293;28;20049;-78
2020/12/11 06:54:28;;;;;;;61.30;19.65;;;2.30;92.80;;;;;;5002184;28;20027;-77
2020/12/11 06:56:56;;;;;;;62.85;21.55;;;2.30;93.00;;;;;;4963794;28;20038;-77
2020/12/11 06:59:28;;;;;;;65.07;21.13;;;2.30;93.00;;;;;;4994664;28;20023;-79
2020/12/11 07:01:55;;;;;;;63.35;19.75;;;2.30;93.00;;;;;;4991143;28;20094;-79
2020/12/11 07:04:22;;;;;;;60.15;21.08;;;2.30;93.00;;;;;;5005955;28;20031;-80
2020/12/11 07:06:52;;;;;;;59.10;20.63;;;2.30;93.00;;;;;;4992283;28;20089;-79
2020/12/11 07:09:18;;;;;;;64.57;21.03;;;2.30;93.00;;;;;;4992767;28;20378;-78
2020/12/11 07:11:46;;;;;;;69.72;21.13;;;2.30;93.00;;;;;;4985781;28;20337;-75
2020/12/11 07:14:12;;;;;;;63.95;21.52;;;2.30;93.20;;;;;;4983645;28;20382;-75
2020/12/11 07:16:42;;;;;;;68.07;21.30;;;2.40;93.20;;;;;;4986879;28;20026;-73
2020/12/11 07:19:08;;;;;;;66.97;22.00;;;2.40;93.60;;;;;;4987022;28;20048;-74
2020/12/11 07:21:35;;;;;;;67.82;21.88;;;2.50;93.30;;;;;;4984112;28;20130;-73
2020/12/11 07:24:01;;;;;;;68.60;21.95;;;2.50;93.00;;;;;;4985377;28;20069;-73
2020/12/11 07:26:27;;;;;;;68.75;22.52;;;2.50;92.90;;;;;;4972437;28;20034;-74
2020/12/11 07:29:04;;;;;;;64.45;21.02;;;2.60;93.00;;;;;;5000515;28;20108;-72
2020/12/11 07:31:38;;;;;;;61.20;20.95;;;2.60;92.70;;;;;;4982012;28;20030;-71
2020/12/11 07:34:17;;;;;;;63.17;20.77;;;2.60;92.60;;;;;;4988501;28;20037;-69
2020/12/11 07:36:56;;;;;;;58.90;20.73;;;2.60;92.70;;;;;;4988414;28;20057;-75
2020/12/11 07:39:30;;;;;;;66.25;20.35;;;2.60;92.70;;;;;;4989752;28;20129;-75
2020/12/11 07:42:03;;;;;;;55.65;20.38;;;2.60;92.70;;;;;;4988699;28;20037;-76
2020/12/11 07:44:34;;;;;;;70.40;21.05;;;2.60;92.70;;;;;;4996048;28;20486;-76
2020/12/11 07:47:08;;;;;;;68.53;22.60;;;2.60;92.50;;;;;;4992174;28;20062;-77
2020/12/11 07:49:34;;;;;;;66.43;22.00;;;2.60;92.50;;;;;;4991801;28;20027;-76
2020/12/11 07:52:02;;;;;;;71.50;23.00;;;2.60;92.60;;;;;;4959934;28;20069;-76
2020/12/11 07:54:43;;;;;;;76.93;23.30;;;2.50;92.70;;;;;;4975119;28;20025;-76
2020/12/11 07:57:18;;;;;;;71.88;22.42;;;2.50;92.70;;;;;;4993181;28;20026;-76
2020/12/11 08:00:05;;;;;;;69.40;22.10;;;2.60;92.60;;;;;;4994626;28;20413;-75
2020/12/11 08:02:33;;;;;;;70.40;22.83;;;2.60;92.70;;;;;;4992799;28;20022;-76
2020/12/11 08:04:59;;;;;;;78.22;24.73;;;2.50;92.70;;;;;;4974920;28;20031;-75
2020/12/11 08:07:30;;;;;;;64.95;22.00;;;2.50;92.70;;;;;;4976882;28;20085;-76
2020/12/11 08:10:11;;;;;;;77.20;22.27;;;2.50;92.80;;;;;;4978090;28;20030;-75
2020/12/11 08:12:39;;;;;;;83.50;22.58;;;2.50;92.70;;;;;;4997568;28;20113;-75
2020/12/11 08:15:06;;;;;;;70.55;23.38;;;2.50;92.70;;;;;;4980525;28;20031;-76
2020/12/11 08:17:32;;;;;;;79.32;26.00;;;2.50;92.70;;;;;;4975265;28;20027;-75
2020/12/11 08:20:00;;;;;;;80.65;25.25;;;2.50;92.80;;;;;;4981136;28;20129;-76
2020/12/11 08:22:44;;;;;;;81.80;23.85;;;2.50;92.90;;;;;;4994426;28;20018;-75
2020/12/11 08:25:22;;;;;;;77.35;23.63;;;2.50;92.80;;;;;;4994215;28;20069;-76
2020/12/11 08:27:48;;;;;;;88.68;24.92;;;2.50;92.90;;;;;;4994527;28;20438;-76
2020/12/11 08:30:15;;;;;;;86.65;25.27;;;2.50;92.80;;;;;;4959753;28;20096;-76
2020/12/11 08:32:42;;;;;;;76.28;23.95;;;2.50;92.90;;;;;;5014587;28;20029;-76
2020/12/11 08:35:18;;;;;;;82.55;25.05;;;2.40;93.10;;;;;;4978806;28;20030;-76
2020/12/11 08:37:55;;;;;;;84.80;26.17;;;2.50;92.90;;;;;;4992094;28;20026;-76
2020/12/11 08:40:21;;;;;;;86.65;24.83;;;2.50;93.00;;;;;;4992323;28;20050;-76
2020/12/11 08:48:44;;;;;;;85.13;25.50;;;2.50;93.00;;;;;;4993529;28;20106;-76
2020/12/11 08:51:10;;;;;;;75.72;24.35;;;2.50;92.90;;;;;;4990443;28;20101;-76
2020/12/11 08:53:48;;;;;;;77.97;25.85;;;2.50;92.90;;;;;;4975487;28;20458;-75
2020/12/11 08:56:13;;;;;;;78.30;22.30;;;2.50;92.90;;;;;;4990709;28;20096;-76
2020/12/11 08:58:39;;;;;;;78.07;24.27;;;2.50;93.00;;;;;;4986848;28;20113;-76
2020/12/11 09:01:05;;;;;;;80.80;24.48;;;2.50;92.90;;;;;;4968046;28;20054;-76
2020/12/11 09:03:30;;;;;;;83.07;24.67;;;2.50;93.00;;;;;;4990816;28;20081;-75
2020/12/11 09:05:56;;;;;;;88.20;24.25;;;2.50;93.00;;;;;;4975215;28;20033;-75
2020/12/11 09:08:22;;;;;;;78.30;24.48;;;2.50;93.00;;;;;;4990362;28;20097;-76
2020/12/11 09:10:48;;;;;;;78.00;24.08;;;2.50;93.00;;;;;;4987984;28;20105;-76
2020/12/11 09:13:13;;;;;;;77.78;26.10;;;2.50;93.00;;;;;;4970933;28;20030;-76
2020/12/11 09:15:39;;;;;;;77.55;24.10;;;2.40;93.00;;;;;;4999633;28;20381;-75
2020/12/11 09:18:08;;;;;;;74.43;23.40;;;2.50;93.00;;;;;;4977055;28;20482;-76
2020/12/11 09:20:34;;;;;;;80.07;24.08;;;2.50;93.00;;;;;;4991173;28;20513;-77
2020/12/11 09:23:00;;;;;;;74.65;25.20;;;2.50;93.00;;;;;;4990313;28;20026;-76
2020/12/11 09:25:25;;;;;;;85.03;25.30;;;2.50;93.00;;;;;;4987476;28;20030;-76
2020/12/11 09:27:51;;;;;;;75.95;23.95;;;2.50;92.90;;;;;;4969853;28;20026;-76
2020/12/11 09:30:25;;;;;;;78.63;24.38;;;2.50;92.90;;;;;;4971154;28;20036;-75
2020/12/11 09:35:26;;;;;;;76.85;24.30;;;2.50;92.90;;;;;;5007649;28;20501;-77
2020/12/11 09:37:52;;;;;;;74.30;23.80;;;2.60;92.90;;;;;;4990510;28;20396;-77
2020/12/11 09:40:20;;;;;;;82.65;25.85;;;2.50;92.80;;;;;;4990720;28;20033;-77
2020/12/11 09:45:47;;;;;;;81.95;24.42;;;2.50;92.90;;;;;;4975637;28;20026;-77
2020/12/11 09:48:24;;;;;;;81.20;25.00;;;2.50;93.00;;;;;;4992824;28;20045;-77
2020/12/11 09:56:03;;;;;;;74.88;24.52;;;2.60;92.90;;;;;;4987728;28;20022;-77
2020/12/11 09:58:29;;;;;;;77.15;25.17;;;2.60;92.80;;;;;;4973676;28;20606;-77
2020/12/11 10:00:58;;;;;;;83.57;25.17;;;2.60;92.80;;;;;;4974536;28;20117;-78
2020/12/11 10:03:30;;;;;;;82.22;26.45;;;2.50;92.90;;;;;;4990453;28;20117;-77
2020/12/11 10:05:56;;;;;;;73.50;25.40;;;2.50;92.90;;;;;;4976977;28;20037;-78
2020/12/11 10:08:22;;;;;;;72.03;25.23;;;2.50;92.90;;;;;;4966058;28;20072;-77
2020/12/11 10:10:47;;;;;;;72.40;23.05;;;2.60;92.90;;;;;;4977789;28;20041;-76
2020/12/11 10:13:13;;;;;;;77.45;25.13;;;2.50;92.90;;;;;;4964235;28;20081;-78
2020/12/11 10:15:42;;;;;;;68.95;23.05;;;2.60;92.90;;;;;;4974496;28;20038;-77
2020/12/11 10:18:08;;;;;;;78.97;23.90;;;2.60;92.90;;;;;;4986604;28;20403;-78
2020/12/11 10:20:35;;;;;;;81.78;25.02;;;2.70;92.80;;;;;;4982254;28;20036;-76
2020/12/11 10:23:01;;;;;;;80.57;24.55;;;2.60;92.70;;;;;;4986379;28;20026;-76
2020/12/11 10:25:27;;;;;;;81.38;23.45;;;2.60;92.70;;;;;;4995827;28;20026;-77
2020/12/11 10:27:54;;;;;;;77.68;24.20;;;2.60;92.70;;;;;;4979319;28;20034;-77
2020/12/11 10:30:20;;;;;;;74.93;23.58;;;2.60;92.80;;;;;;4993886;28;20038;-79
2020/12/11 10:32:45;;;;;;;71.82;23.90;;;2.60;92.80;;;;;;4981229;28;20042;-79
2020/12/11 10:35:12;;;;;;;79.93;24.88;;;2.60;92.70;;;;;;4995944;28;20038;-78
2020/12/11 10:37:38;;;;;;;72.43;23.88;;;2.60;92.60;;;;;;4981479;28;20040;-79
2020/12/11 10:40:16;;;;;;;75.22;23.27;;;2.60;92.50;;;;;;4978585;28;20037;-77
2020/12/11 10:42:42;;;;;;;72.65;24.77;;;2.60;92.70;;;;;;4960292;28;20038;-78
2020/12/11 10:45:08;;;;;;;73.00;23.35;;;2.60;92.60;;;;;;4973075;28;20084;-77
2020/12/11 10:47:34;;;;;;;71.28;24.80;;;2.70;92.60;;;;;;4978689;28;20125;-76
2020/12/11 10:50:00;;;;;;;78.15;24.85;;;2.70;92.50;;;;;;4958463;28;20053;-77
2020/12/11 10:52:25;;;;;;;66.88;22.60;;;2.60;92.40;;;;;;5007346;28;20021;-77
2020/12/11 10:54:53;;;;;;;69.32;22.35;;;2.60;92.40;;;;;;4960040;28;20092;-78
2020/12/11 10:57:57;;;;;;;71.32;22.67;;;2.70;92.60;;;;;;4960393;28;20493;-76
2020/12/11 11:00:24;;;;;;;65.90;23.48;;;2.70;92.50;;;;;;4974975;28;20041;-78
2020/12/11 11:02:50;;;;;;;70.22;21.83;;;2.70;92.50;;;;;;4978083;28;20030;-78
2020/12/11 11:05:16;;;;;;;73.95;24.42;;;2.70;92.60;;;;;;4986069;28;20029;-78
2020/12/11 11:07:42;;;;;;;66.88;24.85;;;2.70;92.40;;;;;;4989148;28;20026;-78
2020/12/11 11:12:39;;;;;;;79.22;25.52;;;2.70;92.50;;;;;;4976008;28;20050;-77
2020/12/11 11:20:42;;;;;;;72.22;23.77;;;2.70;92.40;;;;;;4998491;28;20032;-77
2020/12/11 11:23:23;;;;;;;71.80;24.27;;;2.70;92.40;;;;;;4960112;28;20073;-76
2020/12/11 11:28:33;;;;;;;76.15;24.05;;;2.70;92.40;;;;;;4976042;28;20077;-76
2020/12/11 11:30:59;;;;;;;71.65;24.02;;;2.70;92.30;;;;;;4993649;28;20062;-77
2020/12/11 11:33:25;;;;;;;84.72;25.20;;;2.70;92.30;;;;;;4977202;28;20472;-74
2020/12/11 11:35:50;;;;;;;74.50;24.67;;;2.70;92.40;;;;;;4969186;28;20051;-75
2020/12/11 11:38:18;;;;;;;76.28;25.02;;;2.80;92.20;;;;;;4988876;28;20026;-76
2020/12/11 11:40:49;;;;;;;74.38;23.60;;;2.80;92.20;;;;;;4979205;28;20029;-76
2020/12/11 11:43:18;;;;;;;69.35;22.80;;;2.80;92.20;;;;;;4976692;28;20026;-76
2020/12/11 11:45:45;;;;;;;69.18;23.10;;;2.80;92.10;;;;;;4976104;28;20035;-76
2020/12/11 11:48:14;;;;;;;74.63;25.17;;;2.80;92.10;;;;;;4967413;28;20025;-77
2020/12/11 11:51:31;;;;;;;74.57;24.17;;;2.90;92.40;;;;;;4978395;28;20136;-77
2020/12/11 11:53:29;;;;;;;66.05;23.13;;;2.90;91.90;;;;;;4970107;28;20046;-77
2020/12/11 11:55:55;;;;;;;72.68;24.88;;;2.80;92.00;;;;;;4955992;28;20573;-77
2020/12/11 11:58:21;;;;;;;72.15;23.25;;;2.80;92.00;;;;;;4994953;28;20180;-78
2020/12/11 12:00:46;;;;;;;69.30;22.35;;;2.90;92.00;;;;;;4994330;28;20514;-78
2020/12/11 12:03:12;;;;;;;69.93;23.45;;;2.90;91.90;;;;;;4982278;28;20026;-77
2020/12/11 12:05:40;;;;;;;66.93;22.90;;;2.90;91.90;;;;;;4963346;28;20121;-77
2020/12/11 12:08:05;;;;;;;77.82;23.50;;;2.90;92.00;;;;;;4997846;28;20037;-77
2020/12/11 12:10:31;;;;;;;74.57;24.92;;;2.90;92.00;;;;;;4972901;28;20053;-81
2020/12/11 12:12:57;;;;;;;80.35;27.13;;;2.90;92.00;;;;;;4991194;28;20030;-77
2020/12/11 12:15:25;;;;;;;64.38;22.90;;;2.90;91.90;;;;;;4973693;28;20026;-75
2020/12/11 12:20:23;;;;;;;66.68;23.73;;;2.90;92.00;;;;;;4993008;28;20158;-75
2020/12/11 12:30:33;;;;;;;79.22;25.70;;;2.90;91.90;;;;;;4993683;28;20029;-75
2020/12/11 12:43:24;;;;;;;75.82;24.50;;;2.90;92.20;;;;;;4975416;28;20022;-75
2020/12/11 12:45:51;;;;;;;73.68;24.55;;;3.00;92.50;;;;;;4987291;28;20026;-76
2020/12/11 12:48:17;;;;;;;71.20;23.80;;;3.00;91.90;;;;;;4975986;28;20037;-75
2020/12/11 12:50:43;;;;;;;77.50;25.08;;;3.00;91.90;;;;;;4976294;28;20027;-77
2020/12/11 12:53:09;;;;;;;77.22;24.88;;;3.00;91.80;;;;;;4968647;28;20023;-74
2020/12/11 12:55:42;;;;;;;77.05;24.90;;;3.00;91.90;;;;;;4977103;28;20044;-75
2020/12/11 12:58:10;;;;;;;71.05;24.83;;;3.00;91.90;;;;;;5004573;28;20026;-75
2020/12/11 13:00:50;;;;;;;76.68;25.13;;;2.90;91.90;;;;;;4978318;28;20026;-75
2020/12/11 13:06:08;;;;;;;74.20;24.92;;;3.00;92.00;;;;;;4975239;28;20050;-76
2020/12/11 13:08:35;;;;;;;74.78;26.45;;;2.90;92.00;;;;;;4991911;28;20390;-73
2020/12/11 13:11:01;;;;;;;72.93;25.40;;;2.90;92.00;;;;;;4976258;28;20101;-76
2020/12/11 13:13:26;;;;;;;70.85;24.92;;;2.90;91.90;;;;;;4979564;28;20503;-74
2020/12/11 13:15:52;;;;;;;68.80;22.90;;;2.90;91.90;;;;;;4979615;28;20015;-75
2020/12/11 13:18:18;;;;;;;80.10;24.13;;;2.90;92.00;;;;;;4977722;28;20025;-75
2020/12/11 13:20:45;;;;;;;82.97;28.20;;;2.90;92.10;;;;;;4994974;28;20050;-75
2020/12/11 13:28:36;;;;;;;77.75;24.92;;;2.90;92.10;;;;;;4992154;28;20034;-77
2020/12/11 13:31:01;;;;;;;77.85;24.05;;;2.90;92.20;;;;;;4989910;28;20031;-77
2020/12/11 13:33:27;;;;;;;75.80;25.20;;;2.90;92.10;;;;;;4994967;28;20049;-78
2020/12/11 13:35:56;;;;;;;79.20;24.67;;;2.90;92.10;;;;;;4993022;28;20026;-77
2020/12/11 13:38:22;;;;;;;89.47;28.00;;;2.90;92.00;;;;;;4962808;28;20385;-77